sensor_id;sensor_type;location;lat;lon;timestamp;temperature;humidity
19732;DHT22;10017;54.350;18.532;2022-07-29T00:00:40;13.00;99.90
19732;DHT22;10017;54.350;18.532;2022-07-29T00:03:16;12.90;99.90
19732;DHT22;10017;54.350;18.532;2022-07-29T00:05:48;12.90;99.90
19732;DHT22;10017;54.350;18.532;2022-07-29T00:08:22;12.90;99.90
19732;DHT22;10017;54.350;18.532;2022-07-29T00:10:55;12.90;99.90
19732;DHT22;10017;54.350;18.532;2022-07-29T00:13:30;12.90;99.90
19732;DHT22;10017;54.350;18.532;2022-07-29T00:16:03;12.90;99.90
19732;DHT22;10017;54.350;18.532;2022-07-29T00:18:38;12.80;99.90
19732;DHT22;10017;54.350;18.532;2022-07-29T00:21:11;12.80;99.90
19732;DHT22;10017;54.350;18.532;2022-07-29T00:23:42;12.80;99.90
19732;DHT22;10017;54.350;18.532;2022-07-29T00:26:14;12.70;99.90
19732;DHT22;10017;54.350;18.532;2022-07-29T00:28:46;12.70;99.90
19732;DHT22;10017;54.350;18.532;2022-07-29T00:31:18;12.70;99.90
19732;DHT22;10017;54.350;18.532;2022-07-29T00:33:50;12.60;99.90
19732;DHT22;10017;54.350;18.532;2022-07-29T00:36:23;12.60;99.90
19732;DHT22;10017;54.350;18.532;2022-07-29T00:38:55;12.60;99.90
19732;DHT22;10017;54.350;18.532;2022-07-29T00:41:27;12.60;99.90
19732;DHT22;10017;54.350;18.532;2022-07-29T00:43:59;12.60;99.90
19732;DHT22;10017;54.350;18.532;2022-07-29T00:46:31;12.50;99.90
19732;DHT22;10017;54.350;18.532;2022-07-29T00:49:03;12.50;99.90
19732;DHT22;10017;54.350;18.532;2022-07-29T00:51:40;12.50;99.90
19732;DHT22;10017;54.350;18.532;2022-07-29T00:54:12;12.50;99.90
19732;DHT22;10017;54.350;18.532;2022-07-29T00:56:45;12.50;99.90
19732;DHT22;10017;54.350;18.532;2022-07-29T00:59:16;12.50;99.90
19732;DHT22;10017;54.350;18.532;2022-07-29T01:01:48;12.50;99.90
19732;DHT22;10017;54.350;18.532;2022-07-29T01:04:21;12.50;99.90
19732;DHT22;10017;54.350;18.532;2022-07-29T01:06:54;12.50;99.90
19732;DHT22;10017;54.350;18.532;2022-07-29T01:09:29;12.40;99.90
19732;DHT22;10017;54.350;18.532;2022-07-29T01:12:25;12.40;99.90
19732;DHT22;10017;54.350;18.532;2022-07-29T01:14:59;12.40;99.90
19732;DHT22;10017;54.350;18.532;2022-07-29T01:20:30;12.30;99.90
19732;DHT22;10017;54.350;18.532;2022-07-29T01:26:19;12.30;99.90
19732;DHT22;10017;54.350;18.532;2022-07-29T01:29:15;12.30;99.90
19732;DHT22;10017;54.350;18.532;2022-07-29T01:37:28;12.20;99.90
19732;DHT22;10017;54.350;18.532;2022-07-29T01:40:03;12.20;99.90
19732;DHT22;10017;54.350;18.532;2022-07-29T01:45:20;12.20;99.90
19732;DHT22;10017;54.350;18.532;2022-07-29T01:48:24;12.10;99.90
19732;DHT22;10017;54.350;18.532;2022-07-29T01:54:08;12.10;99.90
19732;DHT22;10017;54.350;18.532;2022-07-29T01:56:47;12.10;99.90
19732;DHT22;10017;54.350;18.532;2022-07-29T01:59:21;12.10;99.90
19732;DHT22;10017;54.350;18.532;2022-07-29T02:01:59;12.00;99.90
19732;DHT22;10017;54.350;18.532;2022-07-29T02:04:33;12.00;99.90
19732;DHT22;10017;54.350;18.532;2022-07-29T02:07:13;12.00;99.90
19732;DHT22;10017;54.350;18.532;2022-07-29T02:09:48;12.00;99.90
19732;DHT22;10017;54.350;18.532;2022-07-29T02:12:22;12.00;99.90
19732;DHT22;10017;54.350;18.532;2022-07-29T02:14:56;12.00;99.90
19732;DHT22;10017;54.350;18.532;2022-07-29T02:17:35;11.90;99.90
19732;DHT22;10017;54.350;18.532;2022-07-29T02:20:13;11.90;99.90
19732;DHT22;10017;54.350;18.532;2022-07-29T02:22:46;11.90;99.90
19732;DHT22;10017;54.350;18.532;2022-07-29T02:25:20;11.90;99.90
19732;DHT22;10017;54.350;18.532;2022-07-29T02:27:55;11.90;99.90
19732;DHT22;10017;54.350;18.532;2022-07-29T02:30:28;11.90;99.90
19732;DHT22;10017;54.350;18.532;2022-07-29T02:33:01;11.90;99.90
19732;DHT22;10017;54.350;18.532;2022-07-29T02:35:34;11.80;99.90
19732;DHT22;10017;54.350;18.532;2022-07-29T02:38:10;11.80;99.90
19732;DHT22;10017;54.350;18.532;2022-07-29T02:41:05;11.80;99.90
19732;DHT22;10017;54.350;18.532;2022-07-29T02:43:40;11.80;99.90
19732;DHT22;10017;54.350;18.532;2022-07-29T02:46:20;11.80;99.90
19732;DHT22;10017;54.350;18.532;2022-07-29T02:49:16;11.80;99.90
19732;DHT22;10017;54.350;18.532;2022-07-29T02:52:24;11.70;99.90
19732;DHT22;10017;54.350;18.532;2022-07-29T02:55:40;11.70;99.90
19732;DHT22;10017;54.350;18.532;2022-07-29T02:58:05;11.70;99.90
19732;DHT22;10017;54.350;18.532;2022-07-29T03:00:42;11.80;99.90
19732;DHT22;10017;54.350;18.532;2022-07-29T03:03:19;11.80;99.90
19732;DHT22;10017;54.350;18.532;2022-07-29T03:05:55;11.80;99.90
19732;DHT22;10017;54.350;18.532;2022-07-29T03:08:28;11.80;99.90
19732;DHT22;10017;54.350;18.532;2022-07-29T03:11:01;11.90;99.90
19732;DHT22;10017;54.350;18.532;2022-07-29T03:13:35;11.90;99.90
19732;DHT22;10017;54.350;18.532;2022-07-29T03:16:10;12.00;99.90
19732;DHT22;10017;54.350;18.532;2022-07-29T03:18:42;12.00;99.90
19732;DHT22;10017;54.350;18.532;2022-07-29T03:21:14;12.00;99.90
19732;DHT22;10017;54.350;18.532;2022-07-29T03:23:47;12.00;99.90
19732;DHT22;10017;54.350;18.532;2022-07-29T03:26:19;12.10;99.90
19732;DHT22;10017;54.350;18.532;2022-07-29T03:28:51;12.20;99.90
19732;DHT22;10017;54.350;18.532;2022-07-29T03:31:23;12.20;99.90
19732;DHT22;10017;54.350;18.532;2022-07-29T03:33:55;12.30;99.90
19732;DHT22;10017;54.350;18.532;2022-07-29T03:36:27;12.40;99.90
19732;DHT22;10017;54.350;18.532;2022-07-29T03:38:59;12.50;99.90
19732;DHT22;10017;54.350;18.532;2022-07-29T03:41:33;12.50;99.90
19732;DHT22;10017;54.350;18.532;2022-07-29T03:44:07;12.70;99.90
19732;DHT22;10017;54.350;18.532;2022-07-29T03:46:43;12.80;99.90
19732;DHT22;10017;54.350;18.532;2022-07-29T03:49:19;12.90;99.90
19732;DHT22;10017;54.350;18.532;2022-07-29T03:51:51;13.00;99.90
19732;DHT22;10017;54.350;18.532;2022-07-29T03:54:24;13.10;99.90
19732;DHT22;10017;54.350;18.532;2022-07-29T03:57:01;13.30;99.90
19732;DHT22;10017;54.350;18.532;2022-07-29T03:59:36;13.40;99.90
19732;DHT22;10017;54.350;18.532;2022-07-29T04:02:11;13.50;99.90
19732;DHT22;10017;54.350;18.532;2022-07-29T04:04:43;13.60;99.90
19732;DHT22;10017;54.350;18.532;2022-07-29T04:07:15;13.60;99.90
19732;DHT22;10017;54.350;18.532;2022-07-29T04:09:47;13.70;99.90
19732;DHT22;10017;54.350;18.532;2022-07-29T04:12:19;13.70;99.90
19732;DHT22;10017;54.350;18.532;2022-07-29T04:14:52;13.70;99.90
19732;DHT22;10017;54.350;18.532;2022-07-29T04:17:26;13.70;99.90
19732;DHT22;10017;54.350;18.532;2022-07-29T04:19:58;13.80;99.90
19732;DHT22;10017;54.350;18.532;2022-07-29T04:22:30;13.90;99.90
19732;DHT22;10017;54.350;18.532;2022-07-29T04:25:03;13.90;99.90
19732;DHT22;10017;54.350;18.532;2022-07-29T04:27:35;14.10;99.90
19732;DHT22;10017;54.350;18.532;2022-07-29T04:30:28;14.20;99.90
19732;DHT22;10017;54.350;18.532;2022-07-29T04:33:07;14.40;99.90
19732;DHT22;10017;54.350;18.532;2022-07-29T04:35:39;14.50;99.90
19732;DHT22;10017;54.350;18.532;2022-07-29T04:38:22;14.70;99.90
19732;DHT22;10017;54.350;18.532;2022-07-29T04:40:54;14.90;99.90
19732;DHT22;10017;54.350;18.532;2022-07-29T04:43:26;15.10;99.90
19732;DHT22;10017;54.350;18.532;2022-07-29T04:46:09;15.30;99.90
19732;DHT22;10017;54.350;18.532;2022-07-29T04:48:41;15.60;99.90
19732;DHT22;10017;54.350;18.532;2022-07-29T04:51:17;15.90;99.90
19732;DHT22;10017;54.350;18.532;2022-07-29T04:53:49;16.10;99.90
19732;DHT22;10017;54.350;18.532;2022-07-29T04:56:23;16.40;99.90
19732;DHT22;10017;54.350;18.532;2022-07-29T04:58:55;16.50;99.90
19732;DHT22;10017;54.350;18.532;2022-07-29T05:01:29;16.70;99.90
19732;DHT22;10017;54.350;18.532;2022-07-29T05:04:01;16.90;99.90
19732;DHT22;10017;54.350;18.532;2022-07-29T05:06:34;17.10;99.90
19732;DHT22;10017;54.350;18.532;2022-07-29T05:09:06;17.30;99.90
19732;DHT22;10017;54.350;18.532;2022-07-29T05:11:38;17.50;99.90
19732;DHT22;10017;54.350;18.532;2022-07-29T05:14:09;17.80;99.90
19732;DHT22;10017;54.350;18.532;2022-07-29T05:16:42;18.00;99.90
19732;DHT22;10017;54.350;18.532;2022-07-29T05:19:14;18.20;99.90
19732;DHT22;10017;54.350;18.532;2022-07-29T05:21:46;18.40;99.90
19732;DHT22;10017;54.350;18.532;2022-07-29T05:24:19;18.40;99.90
19732;DHT22;10017;54.350;18.532;2022-07-29T05:26:51;18.30;99.90
19732;DHT22;10017;54.350;18.532;2022-07-29T05:29:23;18.30;99.90
19732;DHT22;10017;54.350;18.532;2022-07-29T05:32:16;18.20;99.90
19732;DHT22;10017;54.350;18.532;2022-07-29T05:34:47;18.10;99.90
19732;DHT22;10017;54.350;18.532;2022-07-29T05:37:22;18.00;99.90
19732;DHT22;10017;54.350;18.532;2022-07-29T05:39:54;18.00;99.90
19732;DHT22;10017;54.350;18.532;2022-07-29T05:42:29;18.00;99.90
19732;DHT22;10017;54.350;18.532;2022-07-29T05:45:02;18.20;99.90
19732;DHT22;10017;54.350;18.532;2022-07-29T05:47:34;18.50;99.90
19732;DHT22;10017;54.350;18.532;2022-07-29T05:50:07;18.70;99.90
19732;DHT22;10017;54.350;18.532;2022-07-29T05:52:42;18.70;99.90
19732;DHT22;10017;54.350;18.532;2022-07-29T05:55:14;18.80;99.90
19732;DHT22;10017;54.350;18.532;2022-07-29T05:57:49;18.90;99.90
19732;DHT22;10017;54.350;18.532;2022-07-29T06:00:21;19.00;99.90
19732;DHT22;10017;54.350;18.532;2022-07-29T06:02:55;18.90;87.10
19732;DHT22;10017;54.350;18.532;2022-07-29T06:05:27;18.80;70.60
19732;DHT22;10017;54.350;18.532;2022-07-29T06:07:59;18.60;71.80
19732;DHT22;10017;54.350;18.532;2022-07-29T06:10:31;18.80;90.70
19732;DHT22;10017;54.350;18.532;2022-07-29T06:13:03;19.80;27.40
19732;DHT22;10017;54.350;18.532;2022-07-29T06:15:35;21.50;1.00
19732;DHT22;10017;54.350;18.532;2022-07-29T06:18:08;23.30;1.00
19732;DHT22;10017;54.350;18.532;2022-07-29T06:20:41;25.10;1.00
19732;DHT22;10017;54.350;18.532;2022-07-29T06:23:13;26.70;1.00
19732;DHT22;10017;54.350;18.532;2022-07-29T06:25:46;28.80;1.00
19732;DHT22;10017;54.350;18.532;2022-07-29T06:28:18;29.90;1.00
19732;DHT22;10017;54.350;18.532;2022-07-29T06:30:50;30.90;99.90
19732;DHT22;10017;54.350;18.532;2022-07-29T06:33:23;32.00;10.90
19732;DHT22;10017;54.350;18.532;2022-07-29T06:35:55;33.10;1.00
19732;DHT22;10017;54.350;18.532;2022-07-29T06:38:27;34.30;99.90
19732;DHT22;10017;54.350;18.532;2022-07-29T06:41:10;34.70;1.00
19732;DHT22;10017;54.350;18.532;2022-07-29T06:43:44;33.60;9.40
19732;DHT22;10017;54.350;18.532;2022-07-29T06:46:28;33.70;1.00
19732;DHT22;10017;54.350;18.532;2022-07-29T06:49:01;33.90;99.90
19732;DHT22;10017;54.350;18.532;2022-07-29T06:51:34;34.70;99.90
19732;DHT22;10017;54.350;18.532;2022-07-29T06:54:06;34.60;1.00
19732;DHT22;10017;54.350;18.532;2022-07-29T06:56:40;34.30;99.90
19732;DHT22;10017;54.350;18.532;2022-07-29T06:59:15;33.60;99.10
19732;DHT22;10017;54.350;18.532;2022-07-29T07:01:53;32.70;1.00
19732;DHT22;10017;54.350;18.532;2022-07-29T07:04:25;32.00;1.00
19732;DHT22;10017;54.350;18.532;2022-07-29T07:06:57;32.70;45.20
19732;DHT22;10017;54.350;18.532;2022-07-29T07:09:30;33.00;1.00
19732;DHT22;10017;54.350;18.532;2022-07-29T07:12:13;32.10;1.00
19732;DHT22;10017;54.350;18.532;2022-07-29T07:14:47;31.50;1.00
19732;DHT22;10017;54.350;18.532;2022-07-29T07:17:19;31.20;1.00
19732;DHT22;10017;54.350;18.532;2022-07-29T07:19:51;30.70;1.00
19732;DHT22;10017;54.350;18.532;2022-07-29T07:22:23;29.40;99.90
19732;DHT22;10017;54.350;18.532;2022-07-29T07:24:57;28.80;99.90
19732;DHT22;10017;54.350;18.532;2022-07-29T07:27:30;28.10;1.00
19732;DHT22;10017;54.350;18.532;2022-07-29T07:30:04;27.80;1.00
19732;DHT22;10017;54.350;18.532;2022-07-29T07:32:40;27.80;1.00
19732;DHT22;10017;54.350;18.532;2022-07-29T07:35:12;27.70;1.00
19732;DHT22;10017;54.350;18.532;2022-07-29T07:37:44;27.00;1.00
19732;DHT22;10017;54.350;18.532;2022-07-29T07:40:18;26.70;99.90
19732;DHT22;10017;54.350;18.532;2022-07-29T07:42:50;25.90;99.90
19732;DHT22;10017;54.350;18.532;2022-07-29T07:45:22;24.90;1.00
19732;DHT22;10017;54.350;18.532;2022-07-29T07:47:55;24.10;1.00
19732;DHT22;10017;54.350;18.532;2022-07-29T07:50:29;23.80;99.90
19732;DHT22;10017;54.350;18.532;2022-07-29T07:53:01;23.80;1.00
19732;DHT22;10017;54.350;18.532;2022-07-29T07:55:33;23.80;99.90
19732;DHT22;10017;54.350;18.532;2022-07-29T07:58:31;23.80;99.90
19732;DHT22;10017;54.350;18.532;2022-07-29T08:01:03;23.40;99.90
19732;DHT22;10017;54.350;18.532;2022-07-29T08:03:35;23.40;1.00
19732;DHT22;10017;54.350;18.532;2022-07-29T08:06:10;23.30;1.00
19732;DHT22;10017;54.350;18.532;2022-07-29T08:08:43;23.40;1.00
19732;DHT22;10017;54.350;18.532;2022-07-29T08:11:20;23.10;1.00
19732;DHT22;10017;54.350;18.532;2022-07-29T08:13:51;22.80;1.00
19732;DHT22;10017;54.350;18.532;2022-07-29T08:16:23;23.00;1.00
19732;DHT22;10017;54.350;18.532;2022-07-29T08:18:56;23.00;1.00
19732;DHT22;10017;54.350;18.532;2022-07-29T08:21:28;23.20;1.00
19732;DHT22;10017;54.350;18.532;2022-07-29T08:24:00;23.20;1.00
19732;DHT22;10017;54.350;18.532;2022-07-29T08:26:53;23.70;1.00
19732;DHT22;10017;54.350;18.532;2022-07-29T08:29:25;24.10;99.90
19732;DHT22;10017;54.350;18.532;2022-07-29T08:31:57;23.70;99.90
19732;DHT22;10017;54.350;18.532;2022-07-29T08:34:29;23.60;1.00
19732;DHT22;10017;54.350;18.532;2022-07-29T08:37:01;23.60;99.90
19732;DHT22;10017;54.350;18.532;2022-07-29T08:39:35;23.70;99.90
19732;DHT22;10017;54.350;18.532;2022-07-29T08:42:08;24.00;1.00
19732;DHT22;10017;54.350;18.532;2022-07-29T08:44:43;24.10;99.90
19732;DHT22;10017;54.350;18.532;2022-07-29T08:47:16;24.00;99.90
19732;DHT22;10017;54.350;18.532;2022-07-29T08:49:48;24.10;99.90
19732;DHT22;10017;54.350;18.532;2022-07-29T08:52:20;24.30;1.00
19732;DHT22;10017;54.350;18.532;2022-07-29T08:54:55;24.30;1.00
19732;DHT22;10017;54.350;18.532;2022-07-29T08:57:28;24.20;1.00
19732;DHT22;10017;54.350;18.532;2022-07-29T09:00:09;24.30;1.00
19732;DHT22;10017;54.350;18.532;2022-07-29T09:02:47;24.00;1.00
19732;DHT22;10017;54.350;18.532;2022-07-29T09:05:24;24.10;1.00
19732;DHT22;10017;54.350;18.532;2022-07-29T09:08:00;23.90;99.90
19732;DHT22;10017;54.350;18.532;2022-07-29T09:10:35;24.00;1.00
19732;DHT22;10017;54.350;18.532;2022-07-29T09:13:07;24.40;1.00
19732;DHT22;10017;54.350;18.532;2022-07-29T09:15:39;24.70;99.90
19732;DHT22;10017;54.350;18.532;2022-07-29T09:18:11;24.80;99.90
19732;DHT22;10017;54.350;18.532;2022-07-29T09:20:52;24.60;99.90
19732;DHT22;10017;54.350;18.532;2022-07-29T09:26:43;25.30;99.90
19732;DHT22;10017;54.350;18.532;2022-07-29T09:29:19;25.30;1.00
19732;DHT22;10017;54.350;18.532;2022-07-29T09:31:52;25.20;1.00
19732;DHT22;10017;54.350;18.532;2022-07-29T09:34:27;24.60;1.00
19732;DHT22;10017;54.350;18.532;2022-07-29T09:37:02;23.70;1.00
19732;DHT22;10017;54.350;18.532;2022-07-29T09:39:42;22.90;99.90
19732;DHT22;10017;54.350;18.532;2022-07-29T09:42:32;22.40;1.00
19732;DHT22;10017;54.350;18.532;2022-07-29T09:45:05;22.00;1.00
19732;DHT22;10017;54.350;18.532;2022-07-29T09:47:47;21.80;1.00
19732;DHT22;10017;54.350;18.532;2022-07-29T09:50:20;21.80;1.00
19732;DHT22;10017;54.350;18.532;2022-07-29T09:52:55;21.70;1.00
19732;DHT22;10017;54.350;18.532;2022-07-29T09:55:27;21.40;1.00
19732;DHT22;10017;54.350;18.532;2022-07-29T09:58:16;21.20;1.00
19732;DHT22;10017;54.350;18.532;2022-07-29T10:00:49;21.40;1.00
19732;DHT22;10017;54.350;18.532;2022-07-29T10:03:29;21.50;1.00
19732;DHT22;10017;54.350;18.532;2022-07-29T10:06:10;21.50;1.00
19732;DHT22;10017;54.350;18.532;2022-07-29T10:08:42;21.60;1.00
19732;DHT22;10017;54.350;18.532;2022-07-29T10:11:16;21.60;1.00
19732;DHT22;10017;54.350;18.532;2022-07-29T10:13:49;21.70;1.00
19732;DHT22;10017;54.350;18.532;2022-07-29T10:16:21;21.60;1.00
19732;DHT22;10017;54.350;18.532;2022-07-29T10:18:53;21.50;1.00
19732;DHT22;10017;54.350;18.532;2022-07-29T10:21:31;21.50;1.00
19732;DHT22;10017;54.350;18.532;2022-07-29T10:24:09;21.50;1.00
19732;DHT22;10017;54.350;18.532;2022-07-29T10:26:48;21.50;1.00
19732;DHT22;10017;54.350;18.532;2022-07-29T10:29:20;21.40;1.00
19732;DHT22;10017;54.350;18.532;2022-07-29T10:32:07;21.50;1.00
19732;DHT22;10017;54.350;18.532;2022-07-29T10:41:10;21.20;1.00
19732;DHT22;10017;54.350;18.532;2022-07-29T10:44:18;21.20;1.00
19732;DHT22;10017;54.350;18.532;2022-07-29T10:46:54;21.30;1.00
19732;DHT22;10017;54.350;18.532;2022-07-29T10:49:27;21.30;1.00
19732;DHT22;10017;54.350;18.532;2022-07-29T10:52:07;21.20;1.00
19732;DHT22;10017;54.350;18.532;2022-07-29T10:54:44;21.10;99.90
19732;DHT22;10017;54.350;18.532;2022-07-29T11:00:26;21.10;1.00
19732;DHT22;10017;54.350;18.532;2022-07-29T11:02:59;21.00;1.00
19732;DHT22;10017;54.350;18.532;2022-07-29T11:05:55;20.90;99.90
19732;DHT22;10017;54.350;18.532;2022-07-29T11:09:18;20.80;99.90
19732;DHT22;10017;54.350;18.532;2022-07-29T11:12:47;20.80;1.00
19732;DHT22;10017;54.350;18.532;2022-07-29T11:15:22;20.80;1.00
19732;DHT22;10017;54.350;18.532;2022-07-29T11:20:49;21.00;1.00
19732;DHT22;10017;54.350;18.532;2022-07-29T11:26:19;20.90;99.90
19732;DHT22;10017;54.350;18.532;2022-07-29T11:29:08;20.80;99.90
19732;DHT22;10017;54.350;18.532;2022-07-29T11:31:48;20.70;99.90
19732;DHT22;10017;54.350;18.532;2022-07-29T11:34:30;20.70;1.00
19732;DHT22;10017;54.350;18.532;2022-07-29T11:45:21;20.60;99.90
19732;DHT22;10017;54.350;18.532;2022-07-29T11:48:18;20.80;99.90
19732;DHT22;10017;54.350;18.532;2022-07-29T11:51:09;20.70;1.00
19732;DHT22;10017;54.350;18.532;2022-07-29T11:53:47;20.70;1.00
19732;DHT22;10017;54.350;18.532;2022-07-29T11:56:23;20.70;1.00
19732;DHT22;10017;54.350;18.532;2022-07-29T11:59:06;20.60;1.00
19732;DHT22;10017;54.350;18.532;2022-07-29T12:01:55;20.50;1.00
19732;DHT22;10017;54.350;18.532;2022-07-29T12:07:34;20.60;1.00
19732;DHT22;10017;54.350;18.532;2022-07-29T12:10:07;20.60;1.00
19732;DHT22;10017;54.350;18.532;2022-07-29T12:12:52;20.60;1.00
19732;DHT22;10017;54.350;18.532;2022-07-29T12:15:25;20.60;1.00
19732;DHT22;10017;54.350;18.532;2022-07-29T12:18:18;20.80;1.00
19732;DHT22;10017;54.350;18.532;2022-07-29T12:21:02;20.90;1.00
19732;DHT22;10017;54.350;18.532;2022-07-29T12:23:37;20.80;1.00
19732;DHT22;10017;54.350;18.532;2022-07-29T12:26:09;20.80;99.90
19732;DHT22;10017;54.350;18.532;2022-07-29T12:28:56;20.90;1.00
19732;DHT22;10017;54.350;18.532;2022-07-29T12:31:32;20.80;99.90
19732;DHT22;10017;54.350;18.532;2022-07-29T12:34:16;20.80;99.90
19732;DHT22;10017;54.350;18.532;2022-07-29T12:36:48;20.80;99.90
19732;DHT22;10017;54.350;18.532;2022-07-29T12:39:21;20.80;99.90
19732;DHT22;10017;54.350;18.532;2022-07-29T12:41:58;20.60;99.90
19732;DHT22;10017;54.350;18.532;2022-07-29T12:44:51;20.50;99.90
19732;DHT22;10017;54.350;18.532;2022-07-29T12:47:23;20.60;99.90
19732;DHT22;10017;54.350;18.532;2022-07-29T12:50:12;20.80;1.00
19732;DHT22;10017;54.350;18.532;2022-07-29T12:52:46;20.80;1.00
19732;DHT22;10017;54.350;18.532;2022-07-29T12:55:41;21.00;99.90
19732;DHT22;10017;54.350;18.532;2022-07-29T12:58:35;21.10;99.90
19732;DHT22;10017;54.350;18.532;2022-07-29T13:01:11;21.10;99.90
19732;DHT22;10017;54.350;18.532;2022-07-29T13:03:55;21.00;99.90
19732;DHT22;10017;54.350;18.532;2022-07-29T13:06:43;21.20;32.00
19732;DHT22;10017;54.350;18.532;2022-07-29T13:09:21;21.20;99.20
19732;DHT22;10017;54.350;18.532;2022-07-29T13:12:07;21.20;99.90
19732;DHT22;10017;54.350;18.532;2022-07-29T13:14:43;21.10;1.00
19732;DHT22;10017;54.350;18.532;2022-07-29T13:17:18;21.00;1.00
19732;DHT22;10017;54.350;18.532;2022-07-29T13:20:04;20.90;99.90
19732;DHT22;10017;54.350;18.532;2022-07-29T13:22:41;20.70;1.00
19732;DHT22;10017;54.350;18.532;2022-07-29T13:25:14;20.60;1.00
19732;DHT22;10017;54.350;18.532;2022-07-29T13:27:45;20.70;1.00
19732;DHT22;10017;54.350;18.532;2022-07-29T13:30:17;20.70;1.00
19732;DHT22;10017;54.350;18.532;2022-07-29T13:32:52;20.80;1.00
19732;DHT22;10017;54.350;18.532;2022-07-29T13:35:24;20.90;99.90
19732;DHT22;10017;54.350;18.532;2022-07-29T13:37:56;21.00;1.00
19732;DHT22;10017;54.350;18.532;2022-07-29T13:40:28;21.00;1.00
19732;DHT22;10017;54.350;18.532;2022-07-29T13:43:04;21.00;1.00
19732;DHT22;10017;54.350;18.532;2022-07-29T13:45:36;20.90;99.90
19732;DHT22;10017;54.350;18.532;2022-07-29T13:48:08;20.90;99.90
19732;DHT22;10017;54.350;18.532;2022-07-29T13:50:42;20.90;1.00
19732;DHT22;10017;54.350;18.532;2022-07-29T13:53:16;20.80;99.90
19732;DHT22;10017;54.350;18.532;2022-07-29T13:55:48;20.60;1.00
19732;DHT22;10017;54.350;18.532;2022-07-29T13:58:21;20.60;1.00
19732;DHT22;10017;54.350;18.532;2022-07-29T14:00:55;20.50;1.00
19732;DHT22;10017;54.350;18.532;2022-07-29T14:03:28;20.50;1.00
19732;DHT22;10017;54.350;18.532;2022-07-29T14:06:00;20.40;1.00
19732;DHT22;10017;54.350;18.532;2022-07-29T14:08:32;20.50;1.00
19732;DHT22;10017;54.350;18.532;2022-07-29T14:11:07;20.60;1.00
19732;DHT22;10017;54.350;18.532;2022-07-29T14:13:38;20.80;1.00
19732;DHT22;10017;54.350;18.532;2022-07-29T14:16:11;21.00;1.00
19732;DHT22;10017;54.350;18.532;2022-07-29T14:18:43;21.00;1.00
19732;DHT22;10017;54.350;18.532;2022-07-29T14:21:16;21.10;1.00
19732;DHT22;10017;54.350;18.532;2022-07-29T14:23:48;20.90;1.00
19732;DHT22;10017;54.350;18.532;2022-07-29T14:26:24;20.90;1.00
19732;DHT22;10017;54.350;18.532;2022-07-29T14:29:00;20.90;1.00
19732;DHT22;10017;54.350;18.532;2022-07-29T14:31:34;21.00;1.00
19732;DHT22;10017;54.350;18.532;2022-07-29T14:34:06;21.00;1.00
19732;DHT22;10017;54.350;18.532;2022-07-29T14:36:38;21.00;99.90
19732;DHT22;10017;54.350;18.532;2022-07-29T14:39:10;20.90;1.00
19732;DHT22;10017;54.350;18.532;2022-07-29T14:41:43;20.50;1.00
19732;DHT22;10017;54.350;18.532;2022-07-29T14:44:18;20.30;1.00
19732;DHT22;10017;54.350;18.532;2022-07-29T14:46:52;20.30;1.00
19732;DHT22;10017;54.350;18.532;2022-07-29T14:49:24;20.50;1.00
19732;DHT22;10017;54.350;18.532;2022-07-29T14:51:56;20.60;1.00
19732;DHT22;10017;54.350;18.532;2022-07-29T14:54:28;20.70;1.00
19732;DHT22;10017;54.350;18.532;2022-07-29T14:57:00;20.80;1.00
19732;DHT22;10017;54.350;18.532;2022-07-29T14:59:32;20.90;1.00
19732;DHT22;10017;54.350;18.532;2022-07-29T15:02:04;20.90;1.00
19732;DHT22;10017;54.350;18.532;2022-07-29T15:04:36;20.90;1.00
19732;DHT22;10017;54.350;18.532;2022-07-29T15:07:08;20.80;1.00
19732;DHT22;10017;54.350;18.532;2022-07-29T15:09:43;20.80;1.00
19732;DHT22;10017;54.350;18.532;2022-07-29T15:12:20;20.80;1.00
19732;DHT22;10017;54.350;18.532;2022-07-29T15:14:52;20.90;1.00
19732;DHT22;10017;54.350;18.532;2022-07-29T15:17:25;20.90;1.00
19732;DHT22;10017;54.350;18.532;2022-07-29T15:19:59;20.70;1.00
19732;DHT22;10017;54.350;18.532;2022-07-29T15:22:31;20.70;1.00
19732;DHT22;10017;54.350;18.532;2022-07-29T15:25:06;20.60;1.00
19732;DHT22;10017;54.350;18.532;2022-07-29T15:27:39;20.40;1.00
19732;DHT22;10017;54.350;18.532;2022-07-29T15:30:11;20.10;1.00
19732;DHT22;10017;54.350;18.532;2022-07-29T15:33:03;19.90;1.00
19732;DHT22;10017;54.350;18.532;2022-07-29T15:35:36;19.90;1.00
19732;DHT22;10017;54.350;18.532;2022-07-29T15:38:11;20.00;1.00
19732;DHT22;10017;54.350;18.532;2022-07-29T15:40:43;20.10;1.00
19732;DHT22;10017;54.350;18.532;2022-07-29T15:43:16;20.20;1.00
19732;DHT22;10017;54.350;18.532;2022-07-29T15:45:50;20.30;1.00
19732;DHT22;10017;54.350;18.532;2022-07-29T15:48:40;20.40;1.00
19732;DHT22;10017;54.350;18.532;2022-07-29T15:51:13;20.50;1.00
19732;DHT22;10017;54.350;18.532;2022-07-29T15:53:45;20.60;1.00
19732;DHT22;10017;54.350;18.532;2022-07-29T15:56:24;20.50;1.00
19732;DHT22;10017;54.350;18.532;2022-07-29T15:58:56;20.50;1.00
19732;DHT22;10017;54.350;18.532;2022-07-29T16:01:29;20.50;1.00
19732;DHT22;10017;54.350;18.532;2022-07-29T16:04:02;20.40;1.00
19732;DHT22;10017;54.350;18.532;2022-07-29T16:06:34;20.40;1.00
19732;DHT22;10017;54.350;18.532;2022-07-29T16:09:10;20.30;1.00
19732;DHT22;10017;54.350;18.532;2022-07-29T16:11:42;20.20;1.00
19732;DHT22;10017;54.350;18.532;2022-07-29T16:14:15;20.10;1.00
19732;DHT22;10017;54.350;18.532;2022-07-29T16:16:47;20.10;1.00
19732;DHT22;10017;54.350;18.532;2022-07-29T16:19:24;20.00;1.00
19732;DHT22;10017;54.350;18.532;2022-07-29T16:21:58;19.80;1.00
19732;DHT22;10017;54.350;18.532;2022-07-29T16:24:30;19.70;1.00
19732;DHT22;10017;54.350;18.532;2022-07-29T16:27:03;19.50;1.00
19732;DHT22;10017;54.350;18.532;2022-07-29T16:29:36;19.50;1.00
19732;DHT22;10017;54.350;18.532;2022-07-29T16:32:08;19.30;1.00
19732;DHT22;10017;54.350;18.532;2022-07-29T16:34:42;19.20;1.00
19732;DHT22;10017;54.350;18.532;2022-07-29T16:37:17;19.00;1.00
19732;DHT22;10017;54.350;18.532;2022-07-29T16:39:49;18.90;1.00
19732;DHT22;10017;54.350;18.532;2022-07-29T16:42:22;18.80;1.00
19732;DHT22;10017;54.350;18.532;2022-07-29T16:45:17;18.70;1.00
19732;DHT22;10017;54.350;18.532;2022-07-29T16:47:55;18.50;1.00
19732;DHT22;10017;54.350;18.532;2022-07-29T16:50:32;18.50;1.00
19732;DHT22;10017;54.350;18.532;2022-07-29T16:53:04;18.40;1.00
19732;DHT22;10017;54.350;18.532;2022-07-29T16:55:36;18.50;1.00
19732;DHT22;10017;54.350;18.532;2022-07-29T16:58:13;18.60;1.00
19732;DHT22;10017;54.350;18.532;2022-07-29T17:00:45;18.60;1.00
19732;DHT22;10017;54.350;18.532;2022-07-29T17:03:17;18.50;1.00